sensor_id;sensor_type;location;lat;lon;timestamp;pressure;altitude;pressure_sealevel;temperature;humidity
70229;BME280;57617;51.988;5.854;2023-08-06T00:00:45;99998.38;;;19.18;70.58
70229;BME280;57617;51.988;5.854;2023-08-06T00:03:10;99998.06;;;19.20;70.55
70229;BME280;57617;51.988;5.854;2023-08-06T00:05:35;99995.31;;;19.20;70.87
70229;BME280;57617;51.988;5.854;2023-08-06T00:08:01;100004.69;;;19.19;70.99
70229;BME280;57617;51.988;5.854;2023-08-06T00:10:26;99999.19;;;19.19;70.92
70229;BME280;57617;51.988;5.854;2023-08-06T00:12:51;99992.06;;;19.18;70.89
70229;BME280;57617;51.988;5.854;2023-08-06T00:15:17;99999.19;;;19.19;71.09
70229;BME280;57617;51.988;5.854;2023-08-06T00:17:42;99998.88;;;19.20;70.87
70229;BME280;57617;51.988;5.854;2023-08-06T00:20:07;99998.56;;;19.22;70.91
70229;BME280;57617;51.988;5.854;2023-08-06T00:22:34;99995.50;;;19.23;70.74
70229;BME280;57617;51.988;5.854;2023-08-06T00:25:00;99990.00;;;19.23;70.69
70229;BME280;57617;51.988;5.854;2023-08-06T00:27:26;99976.66;;;19.17;70.50
70229;BME280;57617;51.988;5.854;2023-08-06T00:29:51;99987.56;;;19.22;71.08
70229;BME280;57617;51.988;5.854;2023-08-06T00:32:17;99983.66;;;19.23;71.02
70229;BME280;57617;51.988;5.854;2023-08-06T00:34:43;99989.69;;;19.25;70.87
70229;BME280;57617;51.988;5.854;2023-08-06T00:37:08;99990.31;;;19.22;70.75
70229;BME280;57617;51.988;5.854;2023-08-06T00:39:33;99997.75;;;19.21;71.35
70229;BME280;57617;51.988;5.854;2023-08-06T00:41:58;99990.31;;;19.22;71.09
70229;BME280;57617;51.988;5.854;2023-08-06T00:44:24;99976.84;;;19.20;71.08
70229;BME280;57617;51.988;5.854;2023-08-06T00:46:49;99985.63;;;19.22;71.06
70229;BME280;57617;51.988;5.854;2023-08-06T00:49:15;99980.72;;;19.19;71.01
70229;BME280;57617;51.988;5.854;2023-08-06T00:51:40;99978.59;;;19.16;71.22
70229;BME280;57617;51.988;5.854;2023-08-06T00:54:07;99981.06;;;19.18;71.26
70229;BME280;57617;51.988;5.854;2023-08-06T00:56:34;99981.84;;;19.18;71.13
70229;BME280;57617;51.988;5.854;2023-08-06T00:59:01;99988.47;;;19.17;71.08
70229;BME280;57617;51.988;5.854;2023-08-06T01:01:26;99983.81;;;19.18;71.02
70229;BME280;57617;51.988;5.854;2023-08-06T01:03:53;99987.66;;;19.17;71.41
70229;BME280;57617;51.988;5.854;2023-08-06T01:06:23;99984.91;;;19.17;71.14
70229;BME280;57617;51.988;5.854;2023-08-06T01:09:05;99984.59;;;19.18;71.40
70229;BME280;57617;51.988;5.854;2023-08-06T01:11:52;99987.34;;;19.18;71.55
70229;BME280;57617;51.988;5.854;2023-08-06T01:14:33;99987.19;;;19.15;71.45
70229;BME280;57617;51.988;5.854;2023-08-06T01:17:01;99967.72;;;19.11;71.62
70229;BME280;57617;51.988;5.854;2023-08-06T01:19:26;99988.00;;;19.15;71.27
70229;BME280;57617;51.988;5.854;2023-08-06T01:21:51;99974.25;;;19.15;71.38
70229;BME280;57617;51.988;5.854;2023-08-06T01:24:19;99969.53;;;19.16;71.48
70229;BME280;57617;51.988;5.854;2023-08-06T01:27:08;99984.13;;;19.16;71.67
70229;BME280;57617;51.988;5.854;2023-08-06T01:29:42;99974.25;;;19.15;71.60
70229;BME280;57617;51.988;5.854;2023-08-06T01:32:11;99973.41;;;19.15;71.54
70229;BME280;57617;51.988;5.854;2023-08-06T01:34:38;99975.34;;;19.14;71.64
70229;BME280;57617;51.988;5.854;2023-08-06T01:37:05;99968.22;;;19.13;71.51
70229;BME280;57617;51.988;5.854;2023-08-06T01:39:33;99969.34;;;19.12;71.64
70229;BME280;57617;51.988;5.854;2023-08-06T01:41:58;99970.66;;;19.15;71.52
70229;BME280;57617;51.988;5.854;2023-08-06T01:44:24;99967.59;;;19.16;71.66
70229;BME280;57617;51.988;5.854;2023-08-06T01:46:49;99968.72;;;19.15;71.77
70229;BME280;57617;51.988;5.854;2023-08-06T01:49:14;99970.34;;;19.16;71.49
70229;BME280;57617;51.988;5.854;2023-08-06T01:51:40;99967.59;;;19.16;71.62
70229;BME280;57617;51.988;5.854;2023-08-06T01:54:05;99974.25;;;19.15;71.63
70229;BME280;57617;51.988;5.854;2023-08-06T01:56:30;99981.19;;;19.13;71.72
70229;BME280;57617;51.988;5.854;2023-08-06T01:58:55;99967.44;;;19.13;71.53
70229;BME280;57617;51.988;5.854;2023-08-06T02:01:21;99972.09;;;19.12;71.76
70229;BME280;57617;51.988;5.854;2023-08-06T02:03:46;99972.94;;;19.13;71.70
70229;BME280;57617;51.988;5.854;2023-08-06T02:06:12;99967.44;;;19.13;71.90
70229;BME280;57617;51.988;5.854;2023-08-06T02:08:37;99966.28;;;19.14;71.91
70229;BME280;57617;51.988;5.854;2023-08-06T02:11:03;99965.16;;;19.15;71.59
70229;BME280;57617;51.988;5.854;2023-08-06T02:13:29;99965.97;;;19.15;72.15
70229;BME280;57617;51.988;5.854;2023-08-06T02:15:54;99966.28;;;19.14;71.55
70229;BME280;57617;51.988;5.854;2023-08-06T02:18:19;99967.72;;;19.11;71.68
70229;BME280;57617;51.988;5.854;2023-08-06T02:20:54;99961.41;;;19.11;71.87
70229;BME280;57617;51.988;5.854;2023-08-06T02:23:20;99959.78;;;19.10;71.84
70229;BME280;57617;51.988;5.854;2023-08-06T02:25:45;99961.22;;;19.07;71.73
70229;BME280;57617;51.988;5.854;2023-08-06T02:28:11;99959.63;;;19.06;71.98
70229;BME280;57617;51.988;5.854;2023-08-06T02:30:36;99950.84;;;19.04;71.73
70229;BME280;57617;51.988;5.854;2023-08-06T02:33:01;99950.34;;;19.02;72.01
70229;BME280;57617;51.988;5.854;2023-08-06T02:35:26;99950.03;;;19.04;72.14
70229;BME280;57617;51.988;5.854;2023-08-06T02:37:52;99952.16;;;19.07;71.84
70229;BME280;57617;51.988;5.854;2023-08-06T02:40:17;99943.56;;;19.08;72.33
70229;BME280;57617;51.988;5.854;2023-08-06T02:42:42;99947.47;;;19.07;72.04
70229;BME280;57617;51.988;5.854;2023-08-06T02:45:08;99945.03;;;19.06;71.93
70229;BME280;57617;51.988;5.854;2023-08-06T02:47:34;99946.63;;;19.07;71.96
70229;BME280;57617;51.988;5.854;2023-08-06T02:49:59;99951.34;;;19.06;71.82
70229;BME280;57617;51.988;5.854;2023-08-06T02:52:24;99936.75;;;19.06;71.72
70229;BME280;57617;51.988;5.854;2023-08-06T02:54:49;99946.63;;;19.07;71.87
70229;BME280;57617;51.988;5.854;2023-08-06T02:57:15;99937.28;;;19.08;71.97
70229;BME280;57617;51.988;5.854;2023-08-06T02:59:40;99937.28;;;19.08;71.97
70229;BME280;57617;51.988;5.854;2023-08-06T03:02:06;99934.19;;;19.09;72.22
70229;BME280;57617;51.988;5.854;2023-08-06T03:04:31;99929.03;;;19.08;72.03
70229;BME280;57617;51.988;5.854;2023-08-06T03:06:56;99931.44;;;19.09;71.99
70229;BME280;57617;51.988;5.854;2023-08-06T03:09:22;99936.63;;;19.11;72.23
70229;BME280;57617;51.988;5.854;2023-08-06T03:11:47;99936.63;;;19.11;72.01
70229;BME280;57617;51.988;5.854;2023-08-06T03:14:12;99931.44;;;19.09;72.09
70229;BME280;57617;51.988;5.854;2023-08-06T03:16:38;99934.19;;;19.09;71.99
70229;BME280;57617;51.988;5.854;2023-08-06T03:19:03;99927.88;;;19.09;72.18
70229;BME280;57617;51.988;5.854;2023-08-06T03:21:28;99927.88;;;19.09;72.32
70229;BME280;57617;51.988;5.854;2023-08-06T03:23:54;99924.81;;;19.10;72.10
70229;BME280;57617;51.988;5.854;2023-08-06T03:26:19;99927.22;;;19.12;72.17
70229;BME280;57617;51.988;5.854;2023-08-06T03:28:44;99922.38;;;19.09;72.04
70229;BME280;57617;51.988;5.854;2023-08-06T03:31:10;99929.81;;;19.08;72.14
70229;BME280;57617;51.988;5.854;2023-08-06T03:33:35;99923.16;;;19.09;72.17
70229;BME280;57617;51.988;5.854;2023-08-06T03:36:00;99928.38;;;19.11;72.24
70229;BME280;57617;51.988;5.854;2023-08-06T03:38:26;99930.31;;;19.10;71.99
70229;BME280;57617;51.988;5.854;2023-08-06T03:40:52;99932.75;;;19.12;72.12
70229;BME280;57617;51.988;5.854;2023-08-06T03:43:17;99930.31;;;19.10;72.13
70229;BME280;57617;51.988;5.854;2023-08-06T03:45:43;99924.63;;;19.07;72.27
70229;BME280;57617;51.988;5.854;2023-08-06T03:48:09;99933.38;;;19.09;72.33
70229;BME280;57617;51.988;5.854;2023-08-06T03:50:34;99927.88;;;19.09;72.33
70229;BME280;57617;51.988;5.854;2023-08-06T03:53:00;99929.50;;;19.10;72.26
70229;BME280;57617;51.988;5.854;2023-08-06T03:55:25;99918.81;;;19.08;72.30
70229;BME280;57617;51.988;5.854;2023-08-06T03:57:51;99926.75;;;19.10;72.35
70229;BME280;57617;51.988;5.854;2023-08-06T04:00:16;99932.56;;;19.08;72.26
70229;BME280;57617;51.988;5.854;2023-08-06T04:02:42;99923.16;;;19.09;72.36
70229;BME280;57617;51.988;5.854;2023-08-06T04:05:07;99927.56;;;19.10;72.65
70229;BME280;57617;51.988;5.854;2023-08-06T04:07:33;99929.03;;;19.08;72.26
70229;BME280;57617;51.988;5.854;2023-08-06T04:10:00;99925.91;;;19.09;72.26
70229;BME280;57617;51.988;5.854;2023-08-06T04:12:26;99924.31;;;19.08;72.29
70229;BME280;57617;51.988;5.854;2023-08-06T04:14:52;99927.88;;;19.09;72.32
70229;BME280;57617;51.988;5.854;2023-08-06T04:17:19;99925.13;;;19.09;72.42
70229;BME280;57617;51.988;5.854;2023-08-06T04:19:49;99929.81;;;19.08;72.40
70229;BME280;57617;51.988;5.854;2023-08-06T04:22:15;99932.25;;;19.10;72.62
70229;BME280;57617;51.988;5.854;2023-08-06T04:24:41;99935.00;;;19.10;72.40
70229;BME280;57617;51.988;5.854;2023-08-06T04:27:08;99933.06;;;19.10;72.41
70229;BME280;57617;51.988;5.854;2023-08-06T04:29:33;99926.88;;;19.05;72.40
70229;BME280;57617;51.988;5.854;2023-08-06T04:31:58;99929.81;;;19.08;72.72
70229;BME280;57617;51.988;5.854;2023-08-06T04:34:23;99938.91;;;19.09;72.45
70229;BME280;57617;51.988;5.854;2023-08-06T04:36:49;99933.38;;;19.09;72.53
70229;BME280;57617;51.988;5.854;2023-08-06T04:39:14;99944.56;;;19.12;72.70
70229;BME280;57617;51.988;5.854;2023-08-06T04:41:40;99945.88;;;19.15;72.46
70229;BME280;57617;51.988;5.854;2023-08-06T04:44:05;99942.00;;;19.16;72.45
70229;BME280;57617;51.988;5.854;2023-08-06T04:46:30;99933.88;;;19.11;72.40
70229;BME280;57617;51.988;5.854;2023-08-06T04:48:56;99940.84;;;19.17;72.69
70229;BME280;57617;51.988;5.854;2023-08-06T04:51:21;99947.19;;;19.17;72.57
70229;BME280;57617;51.988;5.854;2023-08-06T04:53:46;99946.88;;;19.19;72.85
70229;BME280;57617;51.988;5.854;2023-08-06T04:56:11;99948.81;;;19.18;72.45
70229;BME280;57617;51.988;5.854;2023-08-06T04:58:37;99953.50;;;19.18;72.69
70229;BME280;57617;51.988;5.854;2023-08-06T05:01:02;99943.28;;;19.18;72.48
70229;BME280;57617;51.988;5.854;2023-08-06T05:03:27;99952.38;;;19.19;72.58
70229;BME280;57617;51.988;5.854;2023-08-06T05:05:53;99952.38;;;19.19;72.53
70229;BME280;57617;51.988;5.854;2023-08-06T05:08:18;99957.25;;;19.22;72.86
70229;BME280;57617;51.988;5.854;2023-08-06T05:10:44;99958.09;;;19.22;72.69
70229;BME280;57617;51.988;5.854;2023-08-06T05:13:10;99949.63;;;19.19;72.87
70229;BME280;57617;51.988;5.854;2023-08-06T05:15:35;99957.44;;;19.25;72.75
70229;BME280;57617;51.988;5.854;2023-08-06T05:18:01;99955.50;;;19.26;72.73
70229;BME280;57617;51.988;5.854;2023-08-06T05:20:26;99958.75;;;19.28;72.64
70229;BME280;57617;51.988;5.854;2023-08-06T05:22:51;99960.03;;;19.30;72.93
70229;BME280;57617;51.988;5.854;2023-08-06T05:25:17;99953.09;;;19.33;72.87
70229;BME280;57617;51.988;5.854;2023-08-06T05:27:42;99962.34;;;19.37;72.99
70229;BME280;57617;51.988;5.854;2023-08-06T05:30:08;99962.34;;;19.37;72.64
70229;BME280;57617;51.988;5.854;2023-08-06T05:32:34;99968.38;;;19.39;73.03
70229;BME280;57617;51.988;5.854;2023-08-06T05:34:59;99973.22;;;19.42;72.74
70229;BME280;57617;51.988;5.854;2023-08-06T05:37:24;99970.63;;;19.45;73.00
70229;BME280;57617;51.988;5.854;2023-08-06T05:39:50;99982.16;;;19.47;72.85
70229;BME280;57617;51.988;5.854;2023-08-06T05:42:15;99983.78;;;19.48;72.50
70229;BME280;57617;51.988;5.854;2023-08-06T05:44:41;99986.53;;;19.48;72.87
70229;BME280;57617;51.988;5.854;2023-08-06T05:47:06;99991.72;;;19.50;72.67
70229;BME280;57617;51.988;5.854;2023-08-06T05:49:31;99996.94;;;19.51;72.75
70229;BME280;57617;51.988;5.854;2023-08-06T05:51:57;99994.97;;;19.52;72.76
70229;BME280;57617;51.988;5.854;2023-08-06T05:54:22;99991.72;;;19.50;72.89
70229;BME280;57617;51.988;5.854;2023-08-06T05:56:47;99998.53;;;19.52;72.72
70229;BME280;57617;51.988;5.854;2023-08-06T05:59:12;99994.66;;;19.53;72.97
70229;BME280;57617;51.988;5.854;2023-08-06T06:01:38;99993.19;;;19.56;72.79
70229;BME280;57617;51.988;5.854;2023-08-06T06:04:03;100004.22;;;19.56;72.81
70229;BME280;57617;51.988;5.854;2023-08-06T06:06:29;100003.91;;;19.57;72.57
70229;BME280;57617;51.988;5.854;2023-08-06T06:08:54;100002.28;;;19.56;72.73
70229;BME280;57617;51.988;5.854;2023-08-06T06:11:19;100004.69;;;19.58;72.90
70229;BME280;57617;51.988;5.854;2023-08-06T06:13:48;100011.53;;;19.60;72.94
70229;BME280;57617;51.988;5.854;2023-08-06T06:16:13;100017.84;;;19.61;73.15
70229;BME280;57617;51.988;5.854;2023-08-06T06:18:38;100017.03;;;19.60;72.82
70229;BME280;57617;51.988;5.854;2023-08-06T06:21:03;100018.69;;;19.61;72.89
70229;BME280;57617;51.988;5.854;2023-08-06T06:23:29;100019.47;;;19.62;73.37
70229;BME280;57617;51.988;5.854;2023-08-06T06:25:54;100023.06;;;19.62;72.99
70229;BME280;57617;51.988;5.854;2023-08-06T06:28:20;100022.53;;;19.60;72.86
70229;BME280;57617;51.988;5.854;2023-08-06T06:30:46;100017.03;;;19.60;72.90
70229;BME280;57617;51.988;5.854;2023-08-06T06:33:11;100024.97;;;19.62;72.83
70229;BME280;57617;51.988;5.854;2023-08-06T06:35:37;100018.31;;;19.54;72.94
70229;BME280;57617;51.988;5.854;2023-08-06T06:38:02;100040.38;;;19.63;72.73
70229;BME280;57617;51.988;5.854;2023-08-06T06:40:28;100039.25;;;19.64;72.97
70229;BME280;57617;51.988;5.854;2023-08-06T06:42:53;100038.28;;;19.60;72.85
70229;BME280;57617;51.988;5.854;2023-08-06T06:45:18;100045.41;;;19.61;72.94
70229;BME280;57617;51.988;5.854;2023-08-06T06:47:44;100029.16;;;19.51;72.86
70229;BME280;57617;51.988;5.854;2023-08-06T06:50:09;100047.84;;;19.62;72.89
70229;BME280;57617;51.988;5.854;2023-08-06T06:52:34;100054.81;;;19.60;72.72
70229;BME280;57617;51.988;5.854;2023-08-06T06:55:00;100053.97;;;19.59;72.82
70229;BME280;57617;51.988;5.854;2023-08-06T06:57:25;100052.38;;;19.58;73.25
70229;BME280;57617;51.988;5.854;2023-08-06T06:59:50;100052.38;;;19.58;72.94
70229;BME280;57617;51.988;5.854;2023-08-06T07:02:16;100053.19;;;19.59;72.90
70229;BME280;57617;51.988;5.854;2023-08-06T07:04:41;100055.94;;;19.59;73.01
70229;BME280;57617;51.988;5.854;2023-08-06T07:07:06;100051.22;;;19.59;73.20
70229;BME280;57617;51.988;5.854;2023-08-06T07:09:31;100038.88;;;19.48;72.80
70229;BME280;57617;51.988;5.854;2023-08-06T07:11:57;100054.81;;;19.60;72.92
70229;BME280;57617;51.988;5.854;2023-08-06T07:14:25;100067.44;;;19.61;73.19
70229;BME280;57617;51.988;5.854;2023-08-06T07:16:50;100059.19;;;19.61;73.03
70229;BME280;57617;51.988;5.854;2023-08-06T07:19:15;100067.13;;;19.62;73.08
70229;BME280;57617;51.988;5.854;2023-08-06T07:21:41;100060.81;;;19.62;73.30
70229;BME280;57617;51.988;5.854;2023-08-06T07:24:06;100068.44;;;19.65;73.14
70229;BME280;57617;51.988;5.854;2023-08-06T07:26:31;100068.44;;;19.65;72.98
70229;BME280;57617;51.988;5.854;2023-08-06T07:28:57;100064.03;;;19.64;73.04
70229;BME280;57617;51.988;5.854;2023-08-06T07:31:22;100076.06;;;19.68;73.31
70229;BME280;57617;51.988;5.854;2023-08-06T07:33:47;100066.00;;;19.63;73.27
70229;BME280;57617;51.988;5.854;2023-08-06T07:36:14;100074.91;;;19.69;73.30
70229;BME280;57617;51.988;5.854;2023-08-06T07:38:40;100076.56;;;19.70;73.37
70229;BME280;57617;51.988;5.854;2023-08-06T07:41:06;100075.44;;;19.71;73.21
70229;BME280;57617;51.988;5.854;2023-08-06T07:43:31;100069.41;;;19.69;73.11
70229;BME280;57617;51.988;5.854;2023-08-06T07:46:00;100079.81;;;19.72;73.34
70229;BME280;57617;51.988;5.854;2023-08-06T07:48:26;100078.19;;;19.71;72.99
70229;BME280;57617;51.988;5.854;2023-08-06T07:50:52;100078.19;;;19.71;73.13
70229;BME280;57617;51.988;5.854;2023-08-06T07:53:22;100081.44;;;19.73;73.40
70229;BME280;57617;51.988;5.854;2023-08-06T07:55:51;100082.72;;;19.75;73.59
70229;BME280;57617;51.988;5.854;2023-08-06T07:58:17;100066.50;;;19.74;73.64
70229;BME280;57617;51.988;5.854;2023-08-06T08:00:42;100084.56;;;19.80;73.34
70229;BME280;57617;51.988;5.854;2023-08-06T08:03:13;100072.88;;;19.83;73.48
70229;BME280;57617;51.988;5.854;2023-08-06T08:05:39;100080.34;;;19.82;73.53
70229;BME280;57617;51.988;5.854;2023-08-06T08:08:04;100075.63;;;19.83;73.58
70229;BME280;57617;51.988;5.854;2023-08-06T08:10:31;100077.09;;;19.89;73.47
70229;BME280;57617;51.988;5.854;2023-08-06T08:12:56;100077.31;;;19.92;73.54
70229;BME280;57617;51.988;5.854;2023-08-06T08:15:21;100075.84;;;19.95;73.55
70229;BME280;57617;51.988;5.854;2023-08-06T08:17:47;100077.47;;;19.96;73.22
70229;BME280;57617;51.988;5.854;2023-08-06T08:20:13;100081.03;;;19.96;73.23
70229;BME280;57617;51.988;5.854;2023-08-06T08:22:38;100079.56;;;19.99;73.51
70229;BME280;57617;51.988;5.854;2023-08-06T08:25:03;100080.41;;;19.99;73.34
70229;BME280;57617;51.988;5.854;2023-08-06T08:27:29;100087.22;;;20.02;73.62
70229;BME280;57617;51.988;5.854;2023-08-06T08:29:55;100080.56;;;20.03;73.53
70229;BME280;57617;51.988;5.854;2023-08-06T08:32:20;100078.31;;;20.05;73.42
70229;BME280;57617;51.988;5.854;2023-08-06T08:34:45;100078.50;;;20.08;73.52
70229;BME280;57617;51.988;5.854;2023-08-06T08:37:11;100078.34;;;20.13;73.49
70229;BME280;57617;51.988;5.854;2023-08-06T08:39:36;100081.28;;;20.17;73.28
70229;BME280;57617;51.988;5.854;2023-08-06T08:42:01;100080.13;;;20.18;73.29
70229;BME280;57617;51.988;5.854;2023-08-06T08:44:29;100080.63;;;20.20;73.30
70229;BME280;57617;51.988;5.854;2023-08-06T08:46:57;100080.81;;;20.23;73.44
70229;BME280;57617;51.988;5.854;2023-08-06T08:49:23;100083.22;;;20.25;73.42
70229;BME280;57617;51.988;5.854;2023-08-06T08:51:49;100080.16;;;20.26;73.45
70229;BME280;57617;51.988;5.854;2023-08-06T08:54:16;100089.41;;;20.30;73.43
70229;BME280;57617;51.988;5.854;2023-08-06T08:56:42;100088.44;;;20.35;73.66
70229;BME280;57617;51.988;5.854;2023-08-06T08:59:08;100083.91;;;20.39;73.54
70229;BME280;57617;51.988;5.854;2023-08-06T09:01:33;100089.59;;;20.42;73.60
70229;BME280;57617;51.988;5.854;2023-08-06T09:04:00;100094.00;;;20.43;73.37
70229;BME280;57617;51.988;5.854;2023-08-06T09:06:27;100096.41;;;20.45;73.46
70229;BME280;57617;51.988;5.854;2023-08-06T09:08:59;100086.50;;;20.44;73.33
70229;BME280;57617;51.988;5.854;2023-08-06T09:11:26;100099.16;;;20.45;73.29
70229;BME280;57617;51.988;5.854;2023-08-06T09:13:53;100095.91;;;20.43;73.19
70229;BME280;57617;51.988;5.854;2023-08-06T09:16:19;100101.28;;;20.39;73.04
70229;BME280;57617;51.988;5.854;2023-08-06T09:18:44;100110.50;;;20.35;73.15
70229;BME280;57617;51.988;5.854;2023-08-06T09:21:14;100106.44;;;20.32;73.15
70229;BME280;57617;51.988;5.854;2023-08-06T09:23:40;100098.81;;;20.29;73.22
70229;BME280;57617;51.988;5.854;2023-08-06T09:26:05;100107.91;;;20.30;73.17
70229;BME280;57617;51.988;5.854;2023-08-06T09:28:40;100102.06;;;20.23;73.19
70229;BME280;57617;51.988;5.854;2023-08-06T09:31:08;100119.22;;;20.20;72.98
70229;BME280;57617;51.988;5.854;2023-08-06T09:33:36;100113.53;;;20.16;73.12
70229;BME280;57617;51.988;5.854;2023-08-06T09:36:10;100121.81;;;20.16;73.42
70229;BME280;57617;51.988;5.854;2023-08-06T09:38:40;100126.34;;;20.12;73.22
70229;BME280;57617;51.988;5.854;2023-08-06T09:41:07;100121.97;;;20.11;73.24
70229;BME280;57617;51.988;5.854;2023-08-06T09:43:42;100116.28;;;20.08;73.65
70229;BME280;57617;51.988;5.854;2023-08-06T09:46:12;100123.22;;;20.05;73.68
70229;BME280;57617;51.988;5.854;2023-08-06T09:48:38;100123.22;;;20.05;73.39
70229;BME280;57617;51.988;5.854;2023-08-06T09:51:05;100135.69;;;20.03;73.68
70229;BME280;57617;51.988;5.854;2023-08-06T09:53:32;100135.69;;;20.03;73.75
70229;BME280;57617;51.988;5.854;2023-08-06T09:55:59;100136.00;;;20.01;73.73
70229;BME280;57617;51.988;5.854;2023-08-06T09:58:25;100135.84;;;19.98;73.76
70229;BME280;57617;51.988;5.854;2023-08-06T10:00:51;100139.25;;;19.95;73.65
70229;BME280;57617;51.988;5.854;2023-08-06T10:03:16;100138.25;;;19.91;73.82
70229;BME280;57617;51.988;5.854;2023-08-06T10:05:43;100136.13;;;19.88;74.08
70229;BME280;57617;51.988;5.854;2023-08-06T10:08:09;100137.88;;;19.84;73.84
70229;BME280;57617;51.988;5.854;2023-08-06T10:10:35;100125.03;;;19.71;74.08
70229;BME280;57617;51.988;5.854;2023-08-06T10:13:01;100154.25;;;19.80;74.02
70229;BME280;57617;51.988;5.854;2023-08-06T10:15:32;100156.84;;;19.77;74.19
70229;BME280;57617;51.988;5.854;2023-08-06T10:17:59;100158.59;;;19.73;73.96
70229;BME280;57617;51.988;5.854;2023-08-06T10:20:25;100157.41;;;19.65;73.90
70229;BME280;57617;51.988;5.854;2023-08-06T10:23:05;100155.59;;;19.52;73.17
70229;BME280;57617;51.988;5.854;2023-08-06T10:25:33;100166.34;;;19.40;73.38
70229;BME280;57617;51.988;5.854;2023-08-06T10:27:59;100169.69;;;19.29;73.67
70229;BME280;57617;51.988;5.854;2023-08-06T10:33:02;100174.59;;;19.18;73.08
70229;BME280;57617;51.988;5.854;2023-08-06T10:35:28;100178.41;;;19.09;73.54
70229;BME280;57617;51.988;5.854;2023-08-06T10:40:48;100178.47;;;18.95;73.25
70229;BME280;57617;51.988;5.854;2023-08-06T10:43:35;100181.81;;;18.92;73.31
70229;BME280;57617;51.988;5.854;2023-08-06T10:46:02;100180.50;;;18.90;73.60
70229;BME280;57617;51.988;5.854;2023-08-06T10:48:36;100179.69;;;18.89;73.66
70229;BME280;57617;51.988;5.854;2023-08-06T10:51:03;100180.31;;;18.86;73.46
70229;BME280;57617;51.988;5.854;2023-08-06T10:53:29;100176.75;;;18.86;73.45
70229;BME280;57617;51.988;5.854;2023-08-06T10:55:54;100194.69;;;18.83;73.39
70229;BME280;57617;51.988;5.854;2023-08-06T10:58:19;100189.81;;;18.80;73.30
70229;BME280;57617;51.988;5.854;2023-08-06T11:00:45;100189.00;;;18.80;73.62
70229;BME280;57617;51.988;5.854;2023-08-06T11:03:11;100198.28;;;18.84;73.79
70229;BME280;57617;51.988;5.854;2023-08-06T11:05:36;100189.72;;;18.85;73.48
70229;BME280;57617;51.988;5.854;2023-08-06T11:08:02;100201.81;;;18.84;73.50
70229;BME280;57617;51.988;5.854;2023-08-06T11:10:27;100203.78;;;18.84;73.63
70229;BME280;57617;51.988;5.854;2023-08-06T11:12:53;100211.50;;;18.82;73.67
70229;BME280;57617;51.988;5.854;2023-08-06T11:15:20;100206.00;;;18.82;73.69
70229;BME280;57617;51.988;5.854;2023-08-06T11:17:46;100208.16;;;18.85;73.61
70229;BME280;57617;51.988;5.854;2023-08-06T11:20:12;100210.59;;;18.86;73.53
70229;BME280;57617;51.988;5.854;2023-08-06T11:22:37;100205.41;;;18.85;73.47
70229;BME280;57617;51.988;5.854;2023-08-06T11:25:05;100211.84;;;18.80;73.46
70229;BME280;57617;51.988;5.854;2023-08-06T11:27:31;100201.94;;;18.79;73.24
70229;BME280;57617;51.988;5.854;2023-08-06T11:29:56;100213.75;;;18.80;73.38
70229;BME280;57617;51.988;5.854;2023-08-06T11:32:21;100216.53;;;18.80;73.44
70229;BME280;57617;51.988;5.854;2023-08-06T11:34:47;100218.44;;;18.79;73.43
70229;BME280;57617;51.988;5.854;2023-08-06T11:37:12;100225.59;;;18.80;73.64
70229;BME280;57617;51.988;5.854;2023-08-06T11:39:38;100227.22;;;18.81;73.72
70229;BME280;57617;51.988;5.854;2023-08-06T11:42:05;100224.78;;;18.80;73.69
70229;BME280;57617;51.988;5.854;2023-08-06T11:44:31;100225.91;;;18.79;73.55
70229;BME280;57617;51.988;5.854;2023-08-06T11:46:59;100210.00;;;18.76;73.62
70229;BME280;57617;51.988;5.854;2023-08-06T11:49:43;100228.34;;;18.80;74.01
70229;BME280;57617;51.988;5.854;2023-08-06T11:52:24;100219.75;;;18.82;73.98
70229;BME280;57617;51.988;5.854;2023-08-06T11:55:06;100227.72;;;18.83;73.71
70229;BME280;57617;51.988;5.854;2023-08-06T11:57:37;100232.53;;;18.78;73.88
70229;BME280;57617;51.988;5.854;2023-08-06T12:00:06;100217.38;;;18.67;73.64
70229;BME280;57617;51.988;5.854;2023-08-06T12:02:33;100240.47;;;18.79;73.73
70229;BME280;57617;51.988;5.854;2023-08-06T12:05:22;100237.31;;;18.72;73.63
70229;BME280;57617;51.988;5.854;2023-08-06T12:07:52;100247.72;;;18.75;73.62
70229;BME280;57617;51.988;5.854;2023-08-06T12:10:18;100257.59;;;18.76;73.57
70229;BME280;57617;51.988;5.854;2023-08-06T12:12:46;100265.78;;;18.68;73.79
70229;BME280;57617;51.988;5.854;2023-08-06T12:15:12;100268.31;;;18.64;73.98
70229;BME280;57617;51.988;5.854;2023-08-06T12:17:38;100266.19;;;18.61;74.04
70229;BME280;57617;51.988;5.854;2023-08-06T12:20:04;100282.38;;;18.63;74.23
70229;BME280;57617;51.988;5.854;2023-08-06T12:22:31;100265.88;;;18.63;73.95
70229;BME280;57617;51.988;5.854;2023-08-06T12:25:03;100271.88;;;18.65;74.05
70229;BME280;57617;51.988;5.854;2023-08-06T12:27:29;100273.38;;;18.71;73.81
70229;BME280;57617;51.988;5.854;2023-08-06T12:29:54;100276.13;;;18.71;73.98
70229;BME280;57617;51.988;5.854;2023-08-06T12:32:20;100280.03;;;18.70;73.68
70229;BME280;57617;51.988;5.854;2023-08-06T12:34:45;100281.66;;;18.71;73.80
70229;BME280;57617;51.988;5.854;2023-08-06T12:37:10;100284.72;;;18.69;74.01
70229;BME280;57617;51.988;5.854;2023-08-06T12:39:36;100293.78;;;18.70;73.54
70229;BME280;57617;51.988;5.854;2023-08-06T12:42:03;100296.03;;;18.68;74.00
70229;BME280;57617;51.988;5.854;2023-08-06T12:44:29;100295.22;;;18.67;73.98
70229;BME280;57617;51.988;5.854;2023-08-06T12:46:54;100304.28;;;18.68;73.96
70229;BME280;57617;51.988;5.854;2023-08-06T12:49:20;100298.06;;;18.62;73.53
70229;BME280;57617;51.988;5.854;2023-08-06T12:51:48;100311.81;;;18.62;73.96
70229;BME280;57617;51.988;5.854;2023-08-06T12:54:16;100312.66;;;18.63;73.78
70229;BME280;57617;51.988;5.854;2023-08-06T12:56:41;100317.03;;;18.64;73.65